map of BBW home
BBW - Airport
Location
City:  Broken Bow, Nebraska, United States
Name:Broken Bow Municipal/Keith Glaze Field
ICAO:KBBW
IATA:BBW
FAA LID:BBW

Details
Type:Airport (Airfield)
Use:Public/Civil
Latitude:4126'11"N (41.436444)
Longitude:9938'32"W (-99.642166)
Datum:WGS 1984
Elevation:2546 ft (776 m)
Variation:5.14E (WMM2015 magnetic declination)
-0.10 annual change
Runways:1
Longest:4203 × 75 ft (1281 × 23 m), paved

Time
Time Zone:UTC-6 (DST-5)
Local Time:

Weather
METAR:KBBW 131053Z AUTO 31020G29KT 10SM CLR 11/M08 A2982 RMK AO2 PK WND 31030/1024 SLP096 T01111078

Related Locations
Nearby:
Farthest:RRG: 10638 mi / 17119 km
Plaine Corail [Sir Gatan Duval Airport (Plaine Corail Airport)], Rodrigues Island, MU

Find:

   beyond  
but within

Other Information
Maps:
NOTAMs:
Links:
Sources:

  
flag of United States
flag of Nebraska
  

Sectional Chart

Flight Planning
at skyvector.com

Satellite Image

Google Maps Satellite view

 

Copyright © 2004-2017 Karl L. Swartz. All rights reserved.
The Great Circle Mapper name and logo are trademarks of the Great Circle Mapper.
All other trademarks mentioned herein belong to their respective owners.
Please see credits for attibutions and further copyright information.

  Follow gcmap on Facebook Follow gcmap on Twitter Follow gcmap on Google+ GCmap on LinkedIn

hCard Microformat

Geo Microformat